Time;durP1;ratioP1;P1;durP2;ratioP2;P2;SDS_P1;SDS_P2;PMS_P1;PMS_P2;Temp;Humidity;BMP_temperature;BMP_pressure;BME280_temperature;BME280_humidity;BME280_pressure;Samples;Min_cycle;Max_cycle;Signal;HPM_P1;HPM_P2
2023/05/18 00:00:29;;;;;;;13.30;2.10;;;;;;;9.57;77.15;101432.99;105266;1261;97942;-78
2023/05/18 00:03:20;;;;;;;12.80;2.90;;;;;;;9.62;77.39;101432.55;105268;1264;97955;-78
2023/05/18 00:06:06;;;;;;;14.10;2.50;;;;;;;9.65;77.29;101429.68;105117;1264;101349;-78
2023/05/18 00:08:51;;;;;;;6.70;2.10;;;;;;;9.66;77.34;101429.39;105057;1260;100625;-78
2023/05/18 00:11:39;;;;;;;12.50;3.80;;;;;;;9.69;77.61;101433.38;105094;1262;98719;-78
2023/05/18 00:14:26;;;;;;;13.70;2.50;;;;;;;9.71;77.58;101437.57;105131;1260;98079;-77
2023/05/18 00:17:13;;;;;;;12.30;2.70;;;;;;;9.73;77.91;101443.63;104955;1260;98653;-77
2023/05/18 00:19:59;;;;;;;11.90;2.80;;;;;;;9.75;77.82;101446.79;105139;1264;102229;-77
2023/05/18 00:22:47;;;;;;;14.10;3.30;;;;;;;9.78;77.89;101449.54;105595;1264;99078;-80
2023/05/18 00:25:32;;;;;;;10.30;2.90;;;;;;;9.79;78.06;101451.72;106112;1262;98383;-80
2023/05/18 00:28:17;;;;;;;9.50;2.70;;;;;;;9.81;78.11;101460.27;106027;1260;98021;-80
2023/05/18 00:31:05;;;;;;;14.50;2.50;;;;;;;9.81;78.06;101466.65;105696;1260;98528;-77
2023/05/18 00:33:50;;;;;;;7.10;1.90;;;;;;;9.80;77.63;101468.59;105627;1264;102282;-80
2023/05/18 00:36:36;;;;;;;6.30;2.00;;;;;;;9.78;77.18;101466.86;105671;1260;99142;-80
2023/05/18 00:39:22;;;;;;;9.90;2.10;;;;;;;9.73;76.85;101463.27;105967;1260;97918;-79
2023/05/18 00:42:07;;;;;;;6.80;1.90;;;;;;;9.63;76.95;101461.43;104956;1261;97997;-78
2023/05/18 00:44:52;;;;;;;9.90;2.30;;;;;;;9.52;76.80;101454.63;105327;1262;98402;-79
2023/05/18 00:47:38;;;;;;;14.40;2.40;;;;;;;9.39;76.62;101449.84;105987;1260;101362;-79
2023/05/18 00:50:24;;;;;;;9.10;1.90;;;;;;;9.28;76.49;101447.48;106086;1261;99252;-80
2023/05/18 00:53:10;;;;;;;8.40;2.30;;;;;;;9.19;76.76;101444.81;106025;1264;98366;-80
2023/05/18 00:55:55;;;;;;;9.30;2.10;;;;;;;9.13;77.18;101444.16;105957;1261;97971;-80
2023/05/18 00:58:41;;;;;;;7.80;2.00;;;;;;;9.09;77.10;101451.05;106185;1260;98425;-80
2023/05/18 01:01:29;;;;;;;11.90;2.30;;;;;;;9.05;77.30;101451.15;105732;1261;101378;-77
2023/05/18 01:04:16;;;;;;;10.00;1.90;;;;;;;9.02;77.47;101454.64;105310;1261;100290;-78
2023/05/18 01:07:05;;;;;;;12.80;2.10;;;;;;;9.01;77.80;101458.27;105103;1262;98053;-78
2023/05/18 01:09:54;;;;;;;9.90;2.40;;;;;;;9.03;77.87;101457.58;105104;1264;97966;-78
2023/05/18 01:13:18;;;;;;;4.50;1.80;;;;;;;9.04;78.02;101458.49;105267;1261;98394;-78
2023/05/18 01:16:08;;;;;;;8.80;2.20;;;;;;;9.06;78.17;101460.26;104562;1272;102291;-77
2023/05/18 01:19:01;;;;;;;12.00;1.70;;;;;;;9.08;78.23;101460.77;106075;1261;99659;-80
2023/05/18 01:22:11;;;;;;;7.30;1.90;;;;;;;9.09;78.32;101468.52;106128;1261;98473;-79
2023/05/18 01:25:18;;;;;;;14.90;4.50;;;;;;;9.08;78.62;101469.85;105450;1260;98661;-78
2023/05/18 01:28:08;;;;;;;12.30;3.10;;;;;;;9.07;78.82;101475.63;105436;1260;98490;-79
2023/05/18 01:30:55;;;;;;;9.50;2.90;;;;;;;9.06;78.79;101476.65;105284;1266;102367;-77
2023/05/18 01:33:41;;;;;;;12.00;2.90;;;;;;;9.03;78.86;101479.06;105289;1261;99188;-79
2023/05/18 01:36:26;;;;;;;8.40;2.40;;;;;;;8.98;78.93;101481.70;106043;1260;97977;-79
2023/05/18 01:39:13;;;;;;;8.80;1.80;;;;;;;8.95;79.05;101485.05;106047;1260;97882;-79
2023/05/18 01:42:05;;;;;;;9.20;3.00;;;;;;;8.95;79.21;101489.59;106080;1264;98180;-79
2023/05/18 01:44:56;;;;;;;9.40;3.10;;;;;;;8.94;79.15;101494.33;106039;1262;101395;-80
2023/05/18 01:47:45;;;;;;;6.50;2.00;;;;;;;8.93;79.36;101493.68;105920;1260;99212;-79
2023/05/18 01:50:38;;;;;;;15.00;3.50;;;;;;;8.91;79.44;101493.73;106407;1261;98400;-79
2023/05/18 01:53:34;;;;;;;9.70;2.60;;;;;;;8.89;79.55;101493.38;105744;1265;96548;-78
2023/05/18 01:56:20;;;;;;;12.50;2.70;;;;;;;8.87;79.62;101492.73;105042;1264;98506;-76
2023/05/18 01:59:06;;;;;;;7.50;2.20;;;;;;;8.84;79.67;101491.04;105232;1265;102216;-78
2023/05/18 02:01:51;;;;;;;7.00;1.90;;;;;;;8.79;79.74;101491.89;105246;1265;100400;-78
2023/05/18 02:04:37;;;;;;;8.50;1.70;;;;;;;8.75;79.99;101490.59;105600;1261;99031;-77
2023/05/18 02:07:22;;;;;;;8.50;2.20;;;;;;;8.70;79.89;101489.57;105170;1261;99375;-78
2023/05/18 02:10:09;;;;;;;13.10;2.20;;;;;;;8.66;80.47;101491.09;105274;1261;100136;-78
2023/05/18 02:12:54;;;;;;;6.60;1.70;;;;;;;8.58;80.59;101489.93;105331;1264;101416;-78
2023/05/18 02:15:39;;;;;;;8.20;2.10;;;;;;;8.51;80.98;101489.87;105411;1261;99895;-79
2023/05/18 02:18:25;;;;;;;11.20;2.30;;;;;;;8.45;81.22;101487.27;106105;1262;97978;-80
2023/05/18 02:21:12;;;;;;;9.00;2.10;;;;;;;8.41;81.45;101489.80;105934;1266;98512;-77
2023/05/18 02:23:57;;;;;;;12.40;2.50;;;;;;;8.40;81.72;101490.45;105390;1261;97948;-78
2023/05/18 02:26:43;;;;;;;9.00;2.30;;;;;;;8.37;81.76;101491.35;105283;1261;101410;-78
2023/05/18 02:29:29;;;;;;;10.40;2.60;;;;;;;8.33;82.00;101492.45;105243;1260;99268;-78
2023/05/18 02:32:15;;;;;;;10.10;2.20;;;;;;;8.28;82.10;101493.66;105192;1264;98006;-78
2023/05/18 02:35:01;;;;;;;15.00;2.80;;;;;;;8.26;82.20;101498.81;105248;1265;97898;-79
2023/05/18 02:37:48;;;;;;;14.20;3.00;;;;;;;8.27;82.42;101502.77;105148;1264;99278;-77
2023/05/18 02:40:34;;;;;;;7.80;2.20;;;;;;;8.27;82.44;101502.67;105302;1272;102646;-77
2023/05/18 02:43:20;;;;;;;10.10;2.10;;;;;;;8.25;82.73;101506.17;105631;1261;99081;-80
2023/05/18 02:46:06;;;;;;;13.30;2.90;;;;;;;8.24;82.78;101505.92;105742;1261;97958;-78
2023/05/18 02:48:52;;;;;;;6.60;2.10;;;;;;;8.24;82.77;101508.45;105202;1261;97878;-79
2023/05/18 02:51:37;;;;;;;10.50;3.10;;;;;;;8.24;83.15;101511.45;105288;1264;98497;-79
2023/05/18 02:54:23;;;;;;;7.00;2.30;;;;;;;8.26;83.26;101514.67;105277;1265;101449;-79
2023/05/18 02:57:10;;;;;;;10.60;3.00;;;;;;;8.26;83.57;101514.98;105225;1260;99079;-78
2023/05/18 03:00:10;;;;;;;9.40;2.10;;;;;;;8.26;83.47;101518.19;105664;1264;99170;-79
2023/05/18 03:02:56;;;;;;;8.60;2.20;;;;;;;8.26;83.81;101518.92;105471;1267;99118;-79
2023/05/18 03:05:42;;;;;;;12.10;2.30;;;;;;;8.25;83.80;101522.74;105052;1260;97932;-80
2023/05/18 03:08:30;;;;;;;11.90;2.50;;;;;;;8.26;83.97;101527.77;105216;1264;102570;-78
2023/05/18 03:11:16;;;;;;;11.80;4.20;;;;;;;8.27;84.21;101530.55;105323;1264;100095;-79
2023/05/18 03:14:01;;;;;;;14.00;2.90;;;;;;;8.28;84.07;101538.96;105300;1265;99022;-78
2023/05/18 03:16:47;;;;;;;8.80;2.20;;;;;;;8.31;84.27;101540.30;105473;1260;97968;-79
2023/05/18 03:19:34;;;;;;;7.60;2.70;;;;;;;8.33;84.49;101543.45;105433;1260;97962;-79
2023/05/18 03:22:20;;;;;;;10.50;2.60;;;;;;;8.33;84.34;101548.10;105782;1260;101370;-80
2023/05/18 03:25:06;;;;;;;9.80;2.30;;;;;;;8.33;84.66;101549.59;105487;1261;99708;-78
2023/05/18 03:27:53;;;;;;;7.10;2.50;;;;;;;8.33;84.57;101552.02;105571;1264;99059;-78
2023/05/18 03:30:38;;;;;;;10.20;2.50;;;;;;;8.34;84.92;101552.64;105543;1262;97981;-77
2023/05/18 03:33:25;;;;;;;9.30;2.50;;;;;;;8.37;84.93;101551.81;105304;1267;99441;-79
2023/05/18 03:36:11;;;;;;;11.30;2.60;;;;;;;8.40;85.19;101557.55;105223;1260;101980;-78
2023/05/18 03:38:57;;;;;;;12.30;2.90;;;;;;;8.41;85.29;101555.67;105171;1265;108744;-78
2023/05/18 03:41:43;;;;;;;11.10;3.50;;;;;;;8.42;85.38;101555.42;105359;1261;98263;-78
2023/05/18 03:44:29;;;;;;;15.00;3.20;;;;;;;8.44;85.43;101557.33;105284;1264;99004;-78
2023/05/18 03:47:14;;;;;;;16.10;2.90;;;;;;;8.44;85.09;101562.50;105352;1264;97922;-78
2023/05/18 03:50:00;;;;;;;10.10;2.60;;;;;;;8.42;84.94;101563.92;105212;1264;101365;-80
2023/05/18 03:52:46;;;;;;;10.20;3.00;;;;;;;8.41;84.85;101566.02;105324;1261;100337;-79
2023/05/18 03:55:31;;;;;;;10.40;2.60;;;;;;;8.39;84.96;101565.52;105490;1264;106348;-79
2023/05/18 03:58:20;;;;;;;11.70;3.40;;;;;;;8.39;85.07;101570.48;105317;1261;97893;-78
2023/05/18 04:01:05;;;;;;;9.50;2.60;;;;;;;8.40;85.00;101572.66;105272;1265;98408;-78
2023/05/18 04:03:55;;;;;;;12.80;2.70;;;;;;;8.39;84.66;101579.16;105347;1264;102631;-78
2023/05/18 04:06:40;;;;;;;13.00;2.90;;;;;;;8.40;84.69;101580.04;105250;1265;100312;-79
2023/05/18 04:09:28;;;;;;;12.90;2.30;;;;;;;8.40;84.37;101583.38;105518;1262;99352;-79
2023/05/18 04:12:14;;;;;;;9.40;2.40;;;;;;;8.40;84.24;101585.66;105470;1267;97887;-77
2023/05/18 04:14:59;;;;;;;12.40;2.80;;;;;;;8.40;83.95;101582.14;105469;1264;99387;-78
2023/05/18 04:17:44;;;;;;;8.90;2.40;;;;;;;8.41;84.17;101582.34;105614;1264;101336;-79
2023/05/18 04:20:30;;;;;;;6.20;2.60;;;;;;;8.44;83.61;101584.37;105958;1265;100086;-78
2023/05/18 04:23:16;;;;;;;11.90;2.40;;;;;;;8.46;83.37;101589.36;105263;1262;98558;-79
2023/05/18 04:26:02;;;;;;;9.90;2.90;;;;;;;8.49;83.28;101594.62;105401;1264;98102;-80
2023/05/18 04:28:48;;;;;;;12.50;2.70;;;;;;;8.51;83.04;101592.46;105537;1261;97846;-77
2023/05/18 04:31:34;;;;;;;7.90;3.70;;;;;;;8.52;82.67;101594.34;105253;1262;101338;-78
2023/05/18 04:34:20;;;;;;;10.30;2.50;;;;;;;8.57;83.10;101597.91;105446;1264;99831;-79
2023/05/18 04:37:06;;;;;;;13.90;3.80;;;;;;;8.63;82.89;101596.27;105561;1264;98061;-79
2023/05/18 04:39:52;;;;;;;12.20;2.90;;;;;;;8.68;82.75;101597.02;105549;1264;97960;-78
2023/05/18 04:42:44;;;;;;;11.70;2.50;;;;;;;8.72;82.55;101598.88;105199;1265;98412;-80
2023/05/18 04:45:30;;;;;;;7.40;2.60;;;;;;;8.76;82.12;101601.37;105295;1261;101342;-78
2023/05/18 04:48:18;;;;;;;6.80;3.10;;;;;;;8.79;82.02;101605.55;105184;1265;99242;-78
2023/05/18 04:51:05;;;;;;;8.50;3.10;;;;;;;8.81;82.01;101605.39;105173;1264;98950;-78
2023/05/18 04:53:51;;;;;;;15.30;2.90;;;;;;;8.82;81.75;101612.52;105322;1262;98073;-78
2023/05/18 04:56:37;;;;;;;9.00;3.00;;;;;;;8.85;81.70;101614.58;105197;1261;97975;-78
2023/05/18 04:59:24;;;;;;;8.30;2.70;;;;;;;8.88;82.04;101616.55;105338;1261;101340;-79
2023/05/18 05:02:10;;;;;;;11.40;2.50;;;;;;;8.93;82.06;101615.36;105662;1261;100378;-80
2023/05/18 05:04:56;;;;;;;15.80;3.20;;;;;;;8.97;81.81;101616.70;105528;1265;98966;-78
2023/05/18 05:07:41;;;;;;;8.50;2.30;;;;;;;9.02;81.96;101620.19;105317;1265;99776;-80
2023/05/18 05:10:28;;;;;;;10.50;2.90;;;;;;;9.06;81.76;101620.13;105875;1264;95982;-77
2023/05/18 05:13:13;;;;;;;7.70;2.20;;;;;;;9.12;81.62;101619.36;104941;1265;102691;-76
2023/05/18 05:15:59;;;;;;;9.90;2.50;;;;;;;9.12;81.16;101623.04;105307;1260;99160;-77
2023/05/18 05:18:44;;;;;;;6.90;1.70;;;;;;;9.10;81.19;101621.80;105761;1265;99186;-79
2023/05/18 05:21:33;;;;;;;7.60;2.10;;;;;;;9.15;81.71;101620.28;105275;1262;98407;-77
2023/05/18 05:24:20;;;;;;;8.00;2.00;;;;;;;9.24;81.89;101624.30;105473;1262;98051;-78
2023/05/18 05:27:05;;;;;;;6.20;2.00;;;;;;;9.27;81.29;101627.02;105963;1264;101372;-80
2023/05/18 05:29:51;;;;;;;4.80;2.00;;;;;;;9.28;81.31;101625.77;105853;1265;99115;-78
2023/05/18 05:32:36;;;;;;;7.30;1.90;;;;;;;9.35;81.41;101623.95;105228;1262;98105;-79
2023/05/18 05:35:22;;;;;;;9.20;2.30;;;;;;;9.42;81.89;101628.19;105304;1264;97873;-79
2023/05/18 05:38:08;;;;;;;6.50;2.20;;;;;;;9.47;81.33;101628.09;105128;1260;98756;-77
2023/05/18 05:40:54;;;;;;;5.30;1.80;;;;;;;9.50;81.65;101621.20;105428;1264;102901;-78
2023/05/18 05:43:39;;;;;;;9.70;2.50;;;;;;;9.53;81.55;101623.34;105222;1265;100333;-79
2023/05/18 05:46:25;;;;;;;11.10;2.50;;;;;;;9.55;81.54;101629.61;105685;1265;98861;-79
2023/05/18 05:49:11;;;;;;;6.70;1.70;;;;;;;9.59;81.54;101634.02;105208;1265;99291;-79
2023/05/18 05:51:57;;;;;;;7.30;1.70;;;;;;;9.63;81.62;101634.20;105221;1264;97944;-79
2023/05/18 05:54:43;;;;;;;8.90;1.70;;;;;;;9.70;81.86;101634.58;105055;1262;102710;-78
2023/05/18 05:57:30;;;;;;;6.10;1.30;;;;;;;9.72;81.40;101633.82;105508;1262;99820;-78
2023/05/18 06:00:16;;;;;;;11.10;1.50;;;;;;;9.73;81.45;101633.45;105551;1262;97958;-80
2023/05/18 06:03:09;;;;;;;6.80;1.70;;;;;;;9.74;81.52;101630.86;105605;1261;98432;-80
2023/05/18 06:05:58;;;;;;;6.30;1.60;;;;;;;9.80;81.90;101627.83;105922;1265;98509;-80
2023/05/18 06:08:44;;;;;;;6.00;1.50;;;;;;;9.89;81.88;101631.55;106109;1262;102099;-79
2023/05/18 06:11:30;;;;;;;11.10;1.90;;;;;;;9.94;81.45;101635.90;106047;1265;99113;-81
2023/05/18 06:14:16;;;;;;;4.70;1.60;;;;;;;9.94;81.25;101636.37;106118;1262;97959;-80
2023/05/18 06:17:01;;;;;;;4.40;1.40;;;;;;;9.94;80.92;101636.20;105975;1262;98020;-79
2023/05/18 06:19:47;;;;;;;7.10;1.40;;;;;;;9.95;80.62;101637.70;105885;1263;119652;-82
2023/05/18 06:22:32;;;;;;;6.60;1.40;;;;;;;9.95;80.53;101639.30;105941;1261;101981;-80
2023/05/18 06:25:38;;;;;;;9.20;2.00;;;;;;;10.01;80.64;101638.72;105978;1264;99158;-80
2023/05/18 06:28:38;;;;;;;4.00;1.20;;;;;;;10.07;80.71;101640.40;106104;1262;97946;-80
2023/05/18 06:31:42;;;;;;;5.30;1.10;;;;;;;10.16;80.79;101648.77;106007;1264;99237;-80
2023/05/18 06:34:30;;;;;;;6.50;1.60;;;;;;;10.21;79.78;101647.52;106186;1262;98509;-81
2023/05/18 06:37:16;;;;;;;8.10;1.10;;;;;;;10.24;79.63;101655.77;105897;1264;101371;-78
2023/05/18 06:40:03;;;;;;;2.90;0.90;;;;;;;10.28;79.12;101654.81;106093;1265;99218;-82
2023/05/18 06:42:50;;;;;;;3.60;0.90;;;;;;;10.31;78.74;101653.14;105846;1261;99013;-86
2023/05/18 06:45:44;;;;;;;2.80;1.40;;;;;;;10.35;78.52;101654.45;105998;1260;98002;-86
2023/05/18 06:48:37;;;;;;;4.70;1.00;;;;;;;10.41;78.91;101658.50;106082;1262;98410;-87
2023/05/18 06:51:23;;;;;;;4.80;1.20;;;;;;;10.50;78.84;101655.13;105968;1262;101382;-83
2023/05/18 06:54:09;;;;;;;3.60;0.90;;;;;;;10.59;78.29;101653.12;105696;1265;99102;-86
2023/05/18 06:56:55;;;;;;;5.00;0.90;;;;;;;10.65;77.81;101651.23;105711;1265;98952;-84
2023/05/18 06:59:41;;;;;;;3.40;1.10;;;;;;;10.72;77.63;101657.92;105463;1262;97867;-83
2023/05/18 07:02:27;;;;;;;6.60;1.10;;;;;;;10.79;77.53;101658.09;105633;1261;98517;-85
2023/05/18 07:05:15;;;;;;;3.40;0.90;;;;;;;10.91;77.61;101660.45;105703;1265;103124;-82
2023/05/18 07:08:03;;;;;;;2.80;1.00;;;;;;;11.01;77.07;101660.23;105924;1265;99163;-88
2023/05/18 07:10:50;;;;;;;1.80;0.70;;;;;;;11.14;77.23;101662.58;105957;1260;99859;-80
2023/05/18 07:13:35;;;;;;;5.60;0.80;;;;;;;11.22;75.95;101667.18;106102;1262;97773;-83
2023/05/18 07:16:20;;;;;;;4.00;1.30;;;;;;;11.21;75.26;101665.58;105672;1265;99099;-77
2023/05/18 07:19:06;;;;;;;2.00;0.70;;;;;;;11.16;74.87;101664.02;105844;1265;102668;-84
2023/05/18 07:21:51;;;;;;;3.00;0.90;;;;;;;11.18;75.25;101664.83;105764;1261;99148;-84
2023/05/18 07:24:38;;;;;;;3.20;0.60;;;;;;;11.28;75.43;101666.46;105687;1261;98990;-86
2023/05/18 07:27:23;;;;;;;3.70;0.50;;;;;;;11.37;74.73;101670.92;106056;1263;97983;-84
2023/05/18 07:30:10;;;;;;;1.30;0.60;;;;;;;11.46;75.20;101663.86;106098;1259;98479;-88
2023/05/18 07:32:56;;;;;;;1.60;0.80;;;;;;;11.56;74.36;101665.68;106233;1260;101396;-86
2023/05/18 07:35:44;;;;;;;4.50;0.80;;;;;;;11.60;74.04;101670.72;105977;1267;99617;-84
2023/05/18 07:38:30;;;;;;;2.40;0.50;;;;;;;11.65;73.72;101671.63;105764;1265;98482;-83
2023/05/18 07:41:16;;;;;;;2.60;0.70;;;;;;;11.71;73.77;101677.80;105947;1261;97973;-89
2023/05/18 07:44:03;;;;;;;1.40;0.60;;;;;;;11.77;73.96;101676.98;105895;1262;98065;-89
2023/05/18 07:46:59;;;;;;;4.20;0.60;;;;;;;11.83;73.22;101674.16;106135;1262;103479;-89
2023/05/18 07:49:45;;;;;;;2.70;0.50;;;;;;;11.92;73.22;101677.41;105878;1260;100878;-86
2023/05/18 07:52:31;;;;;;;2.80;0.90;;;;;;;11.99;72.29;101678.41;106264;1262;98405;-86
2023/05/18 07:55:17;;;;;;;1.40;0.60;;;;;;;11.97;71.61;101678.09;106240;1266;98137;-90
2023/05/18 07:58:03;;;;;;;1.10;0.40;;;;;;;11.91;71.14;101675.20;106272;1261;98511;-87
2023/05/18 08:01:00;;;;;;;1.20;0.50;;;;;;;11.91;71.34;101675.80;106426;1260;102069;-90
2023/05/18 08:03:46;;;;;;;4.80;0.50;;;;;;;11.91;70.71;101676.82;106395;1262;100387;-92
2023/05/18 08:06:32;;;;;;;4.40;0.70;;;;;;;11.95;70.53;101672.12;106178;1261;98981;-90
2023/05/18 08:09:17;;;;;;;2.50;0.60;;;;;;;11.99;71.31;101673.76;106215;1267;97973;-87
2023/05/18 08:12:04;;;;;;;1.90;0.40;;;;;;;12.07;71.07;101679.67;106263;1262;97773;-85
2023/05/18 08:14:50;;;;;;;2.70;0.50;;;;;;;12.14;71.19;101681.41;106036;1260;101364;-89
2023/05/18 08:17:36;;;;;;;2.80;0.80;;;;;;;12.18;69.92;101677.05;106352;1265;99132;-85
2023/05/18 08:20:24;;;;;;;1.00;0.50;;;;;;;12.16;69.34;101685.30;106208;1268;98070;-88
2023/05/18 08:23:10;;;;;;;1.60;0.30;;;;;;;12.14;69.06;101688.57;105829;1263;97907;-85
2023/05/18 08:25:55;;;;;;;3.20;0.50;;;;;;;12.09;68.12;101691.42;106115;1260;96189;-84
2023/05/18 08:28:42;;;;;;;1.60;0.40;;;;;;;12.06;68.52;101688.95;106181;1265;101408;-85
2023/05/18 08:31:27;;;;;;;1.10;0.30;;;;;;;12.10;68.89;101688.83;105994;1265;109000;-83
2023/05/18 08:34:12;;;;;;;2.30;0.50;;;;;;;12.13;68.73;101688.44;105904;1261;99001;-84
2023/05/18 08:36:58;;;;;;;0.80;0.50;;;;;;;12.17;68.89;101688.02;105891;1265;98097;-87
2023/05/18 08:39:45;;;;;;;4.70;0.40;;;;;;;12.17;68.33;101693.05;106070;1264;98493;-82
2023/05/18 08:42:45;;;;;;;1.20;0.50;;;;;;;12.16;68.83;101690.84;105880;1262;103041;-83
2023/05/18 08:45:49;;;;;;;2.40;0.50;;;;;;;12.24;69.37;101692.04;105873;1262;100354;-83
2023/05/18 08:48:36;;;;;;;5.50;0.50;;;;;;;12.34;68.83;101691.64;105698;1267;99034;-84
2023/05/18 08:51:21;;;;;;;1.70;0.60;;;;;;;12.41;68.77;101694.95;106363;1266;97917;-91
2023/05/18 08:54:09;;;;;;;1.20;0.60;;;;;;;12.45;68.63;101695.79;105715;1260;98563;-87
2023/05/18 08:56:57;;;;;;;4.90;0.70;;;;;;;12.53;68.89;101697.02;105724;1261;101334;-86
2023/05/18 08:59:43;;;;;;;3.10;0.60;;;;;;;12.61;68.75;101700.04;105824;1262;99230;-86
2023/05/18 09:02:31;;;;;;;4.30;0.90;;;;;;;12.68;68.66;101696.42;105810;1264;98043;-86
2023/05/18 09:05:17;;;;;;;1.20;0.50;;;;;;;12.75;68.90;101694.48;105712;1261;98041;-84
2023/05/18 09:08:06;;;;;;;1.50;0.40;;;;;;;12.89;69.53;101689.44;105809;1262;97950;-85
2023/05/18 09:10:56;;;;;;;0.40;0.40;;;;;;;13.04;70.12;101691.91;106029;1265;102240;-86
2023/05/18 09:13:43;;;;;;;2.50;0.70;;;;;;;13.12;69.10;101691.27;106127;1260;99599;-83
2023/05/18 09:16:29;;;;;;;3.30;0.50;;;;;;;13.07;67.66;101691.52;105939;1268;98604;-84
2023/05/18 09:19:15;;;;;;;0.80;0.60;;;;;;;12.99;67.43;101690.77;105932;1260;97974;-83
2023/05/18 09:22:00;;;;;;;1.80;0.70;;;;;;;13.01;67.11;101697.17;105936;1265;97975;-81
2023/05/18 09:24:48;;;;;;;3.10;0.40;;;;;;;13.01;66.83;101692.14;105938;1261;102614;-79
2023/05/18 09:27:33;;;;;;;1.30;0.50;;;;;;;13.03;67.44;101690.38;105891;1262;99074;-79
2023/05/18 09:30:19;;;;;;;2.40;0.50;;;;;;;13.09;67.18;101690.41;105865;1264;97915;-79
2023/05/18 09:33:04;;;;;;;1.10;0.60;;;;;;;13.14;66.65;101687.83;105901;1261;98066;-79
2023/05/18 09:35:50;;;;;;;2.30;0.60;;;;;;;13.23;66.30;101694.13;105297;1260;98218;-80
2023/05/18 09:38:38;;;;;;;1.50;0.50;;;;;;;13.20;66.13;101692.77;105497;1281;102732;-79
2023/05/18 09:41:26;;;;;;;3.80;0.40;;;;;;;13.23;66.17;101692.96;105334;1265;100348;-78
2023/05/18 09:44:12;;;;;;;1.30;0.40;;;;;;;13.25;66.52;101695.50;105264;1260;97946;-78
2023/05/18 09:46:57;;;;;;;2.60;0.50;;;;;;;13.28;66.17;101695.92;105316;1264;97873;-79
2023/05/18 09:49:43;;;;;;;2.30;0.60;;;;;;;13.28;66.26;101696.86;105427;1265;98693;-79
2023/05/18 09:52:28;;;;;;;2.80;0.30;;;;;;;13.34;66.55;101697.92;105280;1265;101342;-80
2023/05/18 09:55:16;;;;;;;1.00;0.40;;;;;;;13.43;66.91;101700.27;105362;1265;99071;-80
2023/05/18 09:58:06;;;;;;;4.60;0.60;;;;;;;13.45;66.08;101702.34;105412;1262;98620;-79
2023/05/18 10:00:55;;;;;;;1.50;0.40;;;;;;;13.44;66.04;101697.96;105351;1262;97968;-78
2023/05/18 10:03:44;;;;;;;4.10;0.60;;;;;;;13.52;66.57;101698.09;105384;1265;98445;-78
2023/05/18 10:06:30;;;;;;;2.10;0.50;;;;;;;13.64;66.30;101702.00;105411;1262;101335;-78
2023/05/18 10:09:16;;;;;;;2.80;0.60;;;;;;;13.65;65.50;101702.83;105357;1265;100408;-79
2023/05/18 10:12:02;;;;;;;2.20;0.50;;;;;;;13.65;65.74;101698.52;105362;1265;98660;-79
2023/05/18 10:14:48;;;;;;;3.70;0.50;;;;;;;13.65;66.01;101700.98;105221;1265;97970;-77
2023/05/18 10:17:34;;;;;;;3.10;0.60;;;;;;;13.62;65.25;101704.06;105053;1265;98577;-78
2023/05/18 10:20:23;;;;;;;1.20;0.40;;;;;;;13.60;65.23;101703.07;104969;1265;102292;-79
2023/05/18 10:23:09;;;;;;;1.70;0.50;;;;;;;13.59;64.82;101696.17;105527;1264;99217;-77
2023/05/18 10:25:56;;;;;;;0.80;0.50;;;;;;;13.65;65.49;101696.94;104947;1266;98555;-77
2023/05/18 10:28:46;;;;;;;4.10;0.50;;;;;;;13.77;65.97;101699.23;105007;1265;97868;-78
2023/05/18 10:31:34;;;;;;;3.50;0.70;;;;;;;13.83;65.31;101701.04;105112;1274;98496;-78
2023/05/18 10:34:23;;;;;;;1.60;0.80;;;;;;;13.90;65.27;101692.59;105071;1265;101387;-77
2023/05/18 10:37:10;;;;;;;2.10;0.40;;;;;;;14.00;65.52;101695.60;105309;1262;99596;-78
2023/05/18 10:39:59;;;;;;;0.70;0.40;;;;;;;14.06;64.88;101694.75;105154;1275;99249;-79
2023/05/18 10:42:45;;;;;;;2.00;0.50;;;;;;;14.09;63.90;101692.94;105068;1265;98073;-78
2023/05/18 10:45:36;;;;;;;2.40;0.60;;;;;;;14.17;64.67;101692.89;105108;1268;97882;-79
2023/05/18 10:48:23;;;;;;;2.30;0.50;;;;;;;14.25;64.16;101690.81;105141;1262;102621;-78
2023/05/18 10:51:09;;;;;;;1.50;0.50;;;;;;;14.30;63.92;101691.81;105098;1265;100326;-78
2023/05/18 10:54:10;;;;;;;1.50;0.50;;;;;;;14.21;63.02;101697.31;105058;1265;97881;-77
2023/05/18 10:56:55;;;;;;;6.40;0.50;;;;;;;14.13;62.98;101695.45;105007;1268;99350;-78
2023/05/18 10:59:43;;;;;;;1.00;0.50;;;;;;;14.16;64.10;101691.54;105179;1263;98885;-78
2023/05/18 11:02:29;;;;;;;1.50;0.50;;;;;;;14.26;64.56;101688.31;105060;1263;102630;-78
2023/05/18 11:05:23;;;;;;;4.00;0.50;;;;;;;14.38;63.87;101682.92;105227;1264;99084;-77
2023/05/18 11:08:08;;;;;;;3.50;0.50;;;;;;;14.50;63.95;101683.02;104954;1264;99121;-77
2023/05/18 11:11:06;;;;;;;3.90;0.80;;;;;;;14.59;64.04;101678.66;106059;1264;98010;-76
2023/05/18 11:13:51;;;;;;;3.20;0.30;;;;;;;14.67;64.35;101680.02;104926;1266;98518;-76
2023/05/18 11:16:40;;;;;;;0.70;0.30;;;;;;;14.65;62.94;101677.88;104919;1265;101371;-78
2023/05/18 11:19:26;;;;;;;4.00;0.50;;;;;;;14.67;63.55;101676.94;104973;1266;100452;-78
2023/05/18 11:22:11;;;;;;;2.00;0.50;;;;;;;14.72;63.05;101681.48;104898;1265;97887;-77
2023/05/18 11:25:02;;;;;;;0.80;0.50;;;;;;;14.74;63.03;101678.86;104876;1261;98030;-77
2023/05/18 11:27:49;;;;;;;1.10;0.50;;;;;;;14.73;62.87;101676.60;104931;1267;99253;-76
2023/05/18 11:30:35;;;;;;;2.80;0.60;;;;;;;14.68;62.59;101676.17;104742;1261;102544;-77
2023/05/18 11:33:31;;;;;;;2.10;0.70;;;;;;;14.61;62.57;101680.39;104967;1265;99083;-78
2023/05/18 11:36:22;;;;;;;1.80;0.40;;;;;;;14.61;63.15;101680.02;105103;1265;98636;-77
2023/05/18 11:39:07;;;;;;;1.80;0.70;;;;;;;14.65;62.92;101677.41;104823;1274;99336;-77
2023/05/18 11:42:07;;;;;;;2.50;0.70;;;;;;;14.70;62.23;101675.38;104933;1261;99673;-76
2023/05/18 11:44:54;;;;;;;1.80;0.50;;;;;;;14.71;62.94;101673.43;104900;1266;101330;-77
2023/05/18 11:47:40;;;;;;;4.90;1.00;;;;;;;14.73;62.82;101678.30;104936;1274;99275;-76
2023/05/18 11:50:25;;;;;;;1.10;0.50;;;;;;;14.74;63.10;101677.58;104938;1267;99309;-79
2023/05/18 11:53:15;;;;;;;2.00;0.60;;;;;;;14.75;62.63;101679.41;105135;1264;97960;-78
2023/05/18 11:56:01;;;;;;;0.60;0.40;;;;;;;14.75;62.28;101680.20;105349;1265;98432;-78
2023/05/18 11:59:10;;;;;;;2.60;1.20;;;;;;;14.75;62.32;101681.81;105201;1265;101337;-78
2023/05/18 12:01:57;;;;;;;4.10;0.60;;;;;;;14.80;62.32;101682.26;105016;1265;100336;-76
2023/05/18 12:04:46;;;;;;;1.40;0.60;;;;;;;14.84;61.93;101676.16;104935;1264;97997;-76
2023/05/18 12:07:34;;;;;;;3.10;0.60;;;;;;;14.88;62.01;101676.14;104964;1264;98126;-77
2023/05/18 12:10:20;;;;;;;1.10;0.60;;;;;;;14.93;62.36;101678.30;104947;1264;99637;-77
2023/05/18 12:13:06;;;;;;;1.50;0.60;;;;;;;14.98;62.18;101682.19;104868;1266;101361;-78
2023/05/18 12:15:55;;;;;;;2.60;0.60;;;;;;;14.92;61.49;101680.37;104910;1274;100211;-79
2023/05/18 12:18:41;;;;;;;2.30;1.10;;;;;;;14.87;61.49;101676.54;104889;1276;98603;-77
2023/05/18 12:21:26;;;;;;;1.70;0.50;;;;;;;14.81;61.49;101677.79;104894;1266;97976;-78
2023/05/18 12:24:12;;;;;;;1.30;0.60;;;;;;;14.69;61.38;101677.66;104916;1264;98386;-78
2023/05/18 12:27:03;;;;;;;6.10;0.60;;;;;;;14.64;62.10;101678.64;104958;1267;102207;-78
2023/05/18 12:29:48;;;;;;;3.10;0.60;;;;;;;14.67;62.79;101679.64;104965;1264;99279;-77
2023/05/18 12:32:33;;;;;;;3.00;0.50;;;;;;;14.72;63.25;101683.73;104904;1261;99000;-78
2023/05/18 12:35:23;;;;;;;0.80;0.70;;;;;;;14.69;62.59;101687.85;104897;1260;98575;-78
2023/05/18 12:38:09;;;;;;;1.20;0.60;;;;;;;14.62;61.87;101682.03;104971;1274;98473;-78
2023/05/18 12:40:55;;;;;;;1.40;0.60;;;;;;;14.61;62.50;101682.27;105217;1260;102043;-77
2023/05/18 12:43:41;;;;;;;1.70;0.60;;;;;;;14.69;63.19;101684.07;104908;1264;99460;-76
2023/05/18 12:46:26;;;;;;;1.20;0.50;;;;;;;14.79;62.96;101681.41;104729;1266;98219;-77
2023/05/18 12:49:12;;;;;;;1.20;0.60;;;;;;;14.85;62.69;101679.45;104962;1260;97987;-77